Time;durP1;ratioP1;P1;durP2;ratioP2;P2;SDS_P1;SDS_P2;PMS_P1;PMS_P2;Temp;Humidity;BMP_temperature;BMP_pressure;BME280_temperature;BME280_humidity;BME280_pressure;Samples;Min_cycle;Max_cycle;Signal;HPM_P1;HPM_P2
2021/12/08 00:02:10;;;;;;;3.40;3.10;;;;;;;3.35;70.78;93535.16;5045803;28;20182;-72
2021/12/08 00:04:35;;;;;;;2.80;2.60;;;;;;;3.03;71.15;93537.09;5044601;28;20422;-71
2021/12/08 00:07:02;;;;;;;1.70;1.60;;;;;;;2.98;71.56;93529.06;5045766;28;20536;-72
2021/12/08 00:09:35;;;;;;;3.17;2.90;;;;;;;2.99;71.84;93528.88;5045080;28;20168;-72
2021/12/08 00:14:44;;;;;;;3.00;2.80;;;;;;;3.13;71.11;93543.63;5045877;28;20463;-72
2021/12/08 00:17:10;;;;;;;2.73;2.50;;;;;;;3.42;69.49;93546.41;5045854;28;20901;-72
2021/12/08 00:19:36;;;;;;;2.63;2.43;;;;;;;3.24;70.69;93557.09;5045763;28;20215;-73
2021/12/08 00:22:01;;;;;;;2.90;2.80;;;;;;;3.36;69.82;93553.09;5045530;28;20203;-72
2021/12/08 00:24:27;;;;;;;3.10;2.80;;;;;;;3.30;70.46;93554.59;5044868;28;20183;-73
2021/12/08 00:26:54;;;;;;;2.20;2.10;;;;;;;3.21;70.53;93558.25;5044692;28;20239;-73
2021/12/08 00:29:21;;;;;;;2.60;2.40;;;;;;;3.26;70.62;93558.53;5044712;28;20231;-72
2021/12/08 00:31:47;;;;;;;4.07;3.40;;;;;;;3.08;70.41;93558.03;5044799;28;20425;-72
2021/12/08 00:34:13;;;;;;;3.53;3.10;;;;;;;3.32;69.93;93559.59;5044783;28;20493;-72
2021/12/08 00:36:43;;;;;;;3.90;3.60;;;;;;;2.85;71.07;93565.84;5048538;28;20432;-73
2021/12/08 00:39:10;;;;;;;3.90;3.50;;;;;;;3.08;70.44;93571.75;5048634;28;20501;-72
2021/12/08 00:41:35;;;;;;;3.50;3.10;;;;;;;3.54;69.77;93564.88;5048676;28;20421;-74
2021/12/08 00:44:01;;;;;;;1.70;1.60;;;;;;;3.40;69.43;93569.84;5081262;28;20402;-73
2021/12/08 00:46:27;;;;;;;3.70;3.07;;;;;;;3.26;69.56;93576.63;5050448;28;20167;-72
2021/12/08 00:48:53;;;;;;;3.90;3.10;;;;;;;2.99;69.95;93588.31;5049005;28;20425;-73
2021/12/08 00:51:19;;;;;;;2.07;1.97;;;;;;;3.38;69.13;93581.34;5048411;28;20518;-73
2021/12/08 00:53:45;;;;;;;4.00;3.00;;;;;;;3.14;69.60;93580.59;5048709;28;20175;-72
2021/12/08 00:56:11;;;;;;;3.10;2.90;;;;;;;3.49;68.60;93583.50;5049958;28;20420;-73
2021/12/08 00:58:37;;;;;;;4.90;3.10;;;;;;;3.35;68.42;93579.91;5047671;28;20465;-72
2021/12/08 01:01:04;;;;;;;2.73;2.57;;;;;;;3.09;69.36;93573.38;5049807;28;20402;-72
2021/12/08 01:03:30;;;;;;;4.63;3.17;;;;;;;2.97;69.81;93584.31;5049121;28;20557;-72
2021/12/08 01:05:57;;;;;;;4.97;3.40;;;;;;;3.45;68.43;93582.25;5047779;28;20191;-72
2021/12/08 01:08:26;;;;;;;3.50;3.23;;;;;;;3.15;69.06;93591.72;5051116;28;20167;-73
2021/12/08 01:10:56;;;;;;;2.60;2.40;;;;;;;3.28;68.25;93590.16;5052976;28;20514;-72
2021/12/08 01:13:23;;;;;;;4.10;3.80;;;;;;;3.49;68.20;93588.66;5049329;28;20496;-73
2021/12/08 01:15:53;;;;;;;2.83;2.63;;;;;;;2.72;69.59;93581.91;5047709;28;20418;-72
2021/12/08 01:18:19;;;;;;;1.50;1.50;;;;;;;2.63;70.26;93595.84;5048921;28;20469;-72
2021/12/08 01:20:46;;;;;;;3.07;2.87;;;;;;;3.20;68.34;93581.69;5048702;28;20433;-73
2021/12/08 01:23:12;;;;;;;4.60;4.20;;;;;;;2.85;69.81;93591.66;5048834;28;20909;-75
2021/12/08 01:25:38;;;;;;;3.50;3.20;;;;;;;3.09;69.40;93595.81;5080592;28;20426;-73
2021/12/08 01:28:04;;;;;;;2.17;2.07;;;;;;;3.15;69.17;93586.56;5079829;28;20505;-73
2021/12/08 01:30:29;;;;;;;5.07;4.47;;;;;;;3.36;68.27;93593.63;5049865;28;20287;-72
2021/12/08 01:32:56;;;;;;;4.17;3.90;;;;;;;3.04;69.05;93590.38;5080393;28;20176;-72
2021/12/08 01:35:22;;;;;;;3.83;3.53;;;;;;;2.95;69.70;93581.88;5047677;28;20258;-72
2021/12/08 01:37:48;;;;;;;3.23;3.00;;;;;;;2.91;69.66;93589.19;5048545;28;20398;-73
2021/12/08 01:40:14;;;;;;;7.10;2.63;;;;;;;2.72;69.52;93576.75;5048039;28;20727;-72
2021/12/08 01:42:47;;;;;;;2.70;2.50;;;;;;;2.60;69.96;93591.00;5047908;28;20635;-73
2021/12/08 01:48:05;;;;;;;4.87;4.47;;;;;;;3.17;69.05;93594.94;5047826;28;20421;-73
2021/12/08 01:50:31;;;;;;;4.97;4.50;;;;;;;3.52;67.08;93601.25;5078933;28;20457;-72
2021/12/08 01:52:57;;;;;;;4.63;4.33;;;;;;;2.73;69.84;93597.25;5052638;28;20410;-72
2021/12/08 01:55:23;;;;;;;4.60;4.20;;;;;;;3.35;68.01;93602.38;5048848;28;20414;-72
2021/12/08 01:57:48;;;;;;;5.03;4.63;;;;;;;3.32;68.10;93608.72;5048230;28;20171;-73
2021/12/08 02:00:23;;;;;;;5.23;4.73;;;;;;;3.29;67.68;93599.53;5047056;28;20163;-72
2021/12/08 02:02:49;;;;;;;4.80;4.30;;;;;;;3.32;67.61;93608.72;5047957;28;20182;-73
2021/12/08 02:05:17;;;;;;;3.80;3.40;;;;;;;3.30;68.09;93618.41;5047756;28;20418;-72
2021/12/08 02:07:42;;;;;;;2.00;1.80;;;;;;;3.26;67.33;93619.75;5047519;28;20414;-73
2021/12/08 02:10:09;;;;;;;3.20;2.90;;;;;;;2.87;68.42;93621.50;5047380;28;20496;-72
2021/12/08 02:12:38;;;;;;;6.57;4.93;;;;;;;3.20;68.17;93618.66;5046936;28;20714;-73
2021/12/08 02:15:06;;;;;;;6.07;5.23;;;;;;;3.79;66.52;93617.13;5052782;28;20421;-72
2021/12/08 02:17:32;;;;;;;6.80;3.33;;;;;;;3.17;68.16;93616.44;5048149;28;20410;-72
2021/12/08 02:19:57;;;;;;;5.20;4.80;;;;;;;3.64;67.30;93627.47;5046274;28;21023;-72
2021/12/08 02:22:23;;;;;;;6.60;5.97;;;;;;;3.61;66.64;93628.63;5046366;28;20175;-72
2021/12/08 02:24:48;;;;;;;6.23;5.63;;;;;;;3.46;67.70;93625.22;5048064;28;20267;-72
2021/12/08 02:27:14;;;;;;;7.67;4.60;;;;;;;3.00;67.90;93636.44;5047893;28;20170;-72
2021/12/08 02:29:51;;;;;;;6.23;4.57;;;;;;;3.41;67.61;93641.25;5047653;28;20199;-73
2021/12/08 02:48:29;;;;;;;8.20;6.70;;;;;;;2.65;70.56;93655.88;5047882;28;20474;-73
2021/12/08 02:50:56;;;;;;;10.80;8.23;;;;;;;2.97;69.74;93633.41;5046964;28;20442;-72
2021/12/08 02:53:22;;;;;;;11.40;9.27;;;;;;;3.37;68.80;93644.38;5046709;28;20168;-72
2021/12/08 02:55:48;;;;;;;11.37;9.17;;;;;;;3.23;69.18;93641.59;5078002;28;20453;-72
2021/12/08 02:58:15;;;;;;;10.00;6.70;;;;;;;2.91;69.60;93638.28;5081908;28;20406;-71
2021/12/08 03:00:55;;;;;;;8.57;7.30;;;;;;;2.74;70.58;93641.94;5048062;28;20485;-72
2021/12/08 03:03:20;;;;;;;12.50;9.60;;;;;;;3.27;68.64;93642.84;5047817;28;20390;-71
2021/12/08 03:05:46;;;;;;;13.30;8.90;;;;;;;2.71;71.04;93647.44;5079751;28;20487;-72
2021/12/08 03:08:13;;;;;;;12.73;10.23;;;;;;;2.79;71.01;93644.81;5046662;28;20210;-72
2021/12/08 03:10:42;;;;;;;12.60;8.80;;;;;;;3.04;69.73;93636.91;5046543;28;20225;-72
2021/12/08 03:13:08;;;;;;;8.53;7.13;;;;;;;2.85;69.87;93641.53;5045646;28;20413;-73
2021/12/08 03:15:36;;;;;;;10.80;8.48;;;;;;;3.32;69.24;93650.88;5047009;28;20425;-72
2021/12/08 03:18:02;;;;;;;12.82;9.55;;;;;;;2.10;72.43;93644.69;5044050;28;20227;-73
2021/12/08 03:20:39;;;;;;;11.30;9.37;;;;;;;2.87;71.58;93649.13;5048798;28;20250;-72
2021/12/08 03:23:10;;;;;;;15.00;11.33;;;;;;;3.42;68.46;93655.81;5047008;28;20382;-72
2021/12/08 03:25:40;;;;;;;8.30;5.87;;;;;;;2.92;69.50;93652.81;5045061;28;20430;-72
2021/12/08 03:28:22;;;;;;;15.40;10.17;;;;;;;3.24;69.43;93656.09;5043890;28;20425;-72
2021/12/08 03:31:12;;;;;;;13.03;9.10;;;;;;;3.00;70.14;93656.28;5043889;28;20927;-72
2021/12/08 03:33:37;;;;;;;11.07;9.40;;;;;;;2.50;71.54;93663.53;5045087;28;20902;-71
2021/12/08 03:36:04;;;;;;;13.10;10.20;;;;;;;3.51;68.61;93672.06;5045325;28;20402;-72
2021/12/08 03:38:29;;;;;;;14.77;10.67;;;;;;;3.15;69.92;93670.09;5044949;28;20413;-72
2021/12/08 03:40:57;;;;;;;16.40;11.23;;;;;;;3.21;70.03;93674.56;5043879;28;20469;-71
2021/12/08 03:43:22;;;;;;;20.10;12.20;;;;;;;3.18;69.96;93672.31;5045039;28;20254;-72
2021/12/08 03:45:51;;;;;;;18.40;11.73;;;;;;;3.52;68.91;93676.25;5045186;28;20402;-72
2021/12/08 03:48:31;;;;;;;18.57;13.80;;;;;;;3.33;69.33;93680.91;5043694;28;20171;-72
2021/12/08 03:50:57;;;;;;;11.33;9.10;;;;;;;3.27;69.06;93680.81;5045101;28;20449;-73
2021/12/08 03:53:23;;;;;;;11.27;9.07;;;;;;;3.08;69.05;93682.09;5044957;28;20424;-72
2021/12/08 03:55:52;;;;;;;15.73;10.50;;;;;;;3.02;70.37;93687.94;5045011;28;20409;-73
2021/12/08 03:58:18;;;;;;;13.00;10.07;;;;;;;3.12;69.02;93680.75;5045038;28;20171;-73
2021/12/08 04:00:45;;;;;;;12.00;10.40;;;;;;;3.31;68.91;93692.41;5044901;28;20413;-74
2021/12/08 04:03:12;;;;;;;12.88;10.02;;;;;;;2.96;70.13;93697.19;5045053;28;20886;-73
2021/12/08 04:05:51;;;;;;;7.20;6.60;;;;;;;2.83;70.09;93700.34;5044986;28;20179;-72
2021/12/08 04:08:26;;;;;;;17.80;11.70;;;;;;;3.24;69.25;93694.06;5043507;28;20398;-72
2021/12/08 04:10:52;;;;;;;10.33;6.20;;;;;;;3.09;69.34;93694.03;5049003;28;20448;-72
2021/12/08 04:13:23;;;;;;;6.17;5.40;;;;;;;3.17;69.58;93704.31;5048732;28;20437;-71
2021/12/08 04:15:49;;;;;;;13.00;10.43;;;;;;;3.03;69.76;93699.88;5048981;28;20393;-73
2021/12/08 04:18:17;;;;;;;13.03;11.20;;;;;;;3.20;68.80;93698.00;5047362;28;20461;-72
2021/12/08 04:20:51;;;;;;;13.47;8.07;;;;;;;3.04;69.59;93699.72;5047249;28;21048;-73
2021/12/08 04:23:19;;;;;;;7.63;6.57;;;;;;;3.30;68.74;93693.38;5048869;28;20688;-72
2021/12/08 04:25:48;;;;;;;14.07;9.60;;;;;;;3.25;68.80;93706.03;5048668;28;20410;-72
2021/12/08 04:28:21;;;;;;;8.87;6.63;;;;;;;3.16;69.14;93707.06;5048477;28;20410;-72
2021/12/08 04:30:57;;;;;;;8.73;7.10;;;;;;;3.44;68.28;93715.91;5054366;28;20452;-72
2021/12/08 04:33:23;;;;;;;10.53;9.47;;;;;;;3.07;69.49;93719.22;5068407;28;20523;-72
2021/12/08 04:35:52;;;;;;;8.20;6.27;;;;;;;3.10;69.13;93719.69;5068300;28;20400;-71
2021/12/08 04:38:25;;;;;;;16.47;11.17;;;;;;;3.43;68.12;93719.47;5067043;28;20405;-72
2021/12/08 04:41:07;;;;;;;17.90;12.43;;;;;;;3.17;69.32;93725.00;5068394;28;20388;-72
2021/12/08 04:47:12;;;;;;;14.23;10.00;;;;;;;3.16;68.38;93733.72;5048622;28;20378;-72
2021/12/08 04:50:12;;;;;;;14.60;12.70;;;;;;;3.58;68.41;93740.19;5048149;28;20483;-72
2021/12/08 05:03:22;;;;;;;15.50;11.03;;;;;;;3.23;69.23;93757.91;5048147;28;20830;-73
2021/12/08 05:06:04;;;;;;;12.87;8.57;;;;;;;3.20;68.87;93754.84;5046612;28;20240;-73
2021/12/08 05:08:41;;;;;;;17.40;11.40;;;;;;;3.69;67.63;93765.66;5046580;28;20409;-73
2021/12/08 05:11:18;;;;;;;7.90;6.10;;;;;;;3.19;68.82;93759.22;5047781;28;20450;-73
2021/12/08 05:13:46;;;;;;;15.50;10.57;;;;;;;3.06;69.95;93774.50;5046583;28;20439;-74
2021/12/08 05:16:13;;;;;;;14.37;10.07;;;;;;;2.67;70.93;93780.47;5047679;28;20418;-73
2021/12/08 05:18:44;;;;;;;23.53;13.43;;;;;;;3.00;69.69;93778.56;5047526;28;20462;-73
2021/12/08 05:21:38;;;;;;;18.53;11.50;;;;;;;2.85;70.95;93783.63;5046656;28;20396;-74
2021/12/08 05:24:12;;;;;;;16.20;12.10;;;;;;;2.82;71.06;93794.28;5043774;28;20445;-73
2021/12/08 05:26:47;;;;;;;20.00;12.47;;;;;;;3.30;69.20;93792.44;5047722;28;20406;-73
2021/12/08 05:29:17;;;;;;;13.10;9.03;;;;;;;2.83;70.08;93780.41;5047857;28;20449;-73
2021/12/08 05:31:43;;;;;;;13.33;11.43;;;;;;;2.59;70.66;93775.34;5047467;28;21016;-73
2021/12/08 05:34:09;;;;;;;19.60;12.98;;;;;;;3.02;70.23;93794.69;5047345;28;20437;-73
2021/12/08 05:36:35;;;;;;;19.03;13.07;;;;;;;3.21;69.32;93790.09;5047230;28;20167;-73
2021/12/08 05:39:06;;;;;;;14.50;11.93;;;;;;;2.82;70.53;93786.53;5045716;28;20183;-73
2021/12/08 05:41:35;;;;;;;14.90;11.77;;;;;;;3.24;69.43;93798.28;5047412;28;20468;-73
2021/12/08 05:44:01;;;;;;;17.37;12.83;;;;;;;2.59;70.88;93794.22;5047201;28;20480;-73
2021/12/08 05:46:31;;;;;;;15.60;12.80;;;;;;;2.90;70.54;93791.69;5045788;28;20414;-73
2021/12/08 05:48:56;;;;;;;13.60;10.70;;;;;;;3.23;69.70;93796.69;5045914;28;20452;-74
2021/12/08 05:51:26;;;;;;;16.00;12.37;;;;;;;3.17;69.95;93792.19;5047547;28;20547;-73
2021/12/08 05:53:58;;;;;;;18.90;14.87;;;;;;;3.31;69.24;93814.72;5047631;28;20309;-74
2021/12/08 05:56:25;;;;;;;19.60;13.40;;;;;;;3.23;69.94;93812.19;5045820;28;20445;-73
2021/12/08 05:58:53;;;;;;;17.73;11.57;;;;;;;3.17;69.88;93805.13;5047097;28;20436;-73
2021/12/08 06:01:28;;;;;;;26.73;13.43;;;;;;;3.51;68.94;93807.34;5046884;28;20428;-74
2021/12/08 06:03:54;;;;;;;20.23;14.90;;;;;;;3.77;68.21;93818.31;5046873;28;20421;-74
2021/12/08 06:06:22;;;;;;;19.70;14.50;;;;;;;3.79;67.50;93813.78;5046868;28;20437;-73
2021/12/08 06:08:48;;;;;;;20.47;13.30;;;;;;;3.42;68.99;93812.75;5046903;28;20440;-74
2021/12/08 06:11:15;;;;;;;14.90;13.13;;;;;;;3.46;68.58;93829.53;5046670;28;20458;-74
2021/12/08 06:13:41;;;;;;;18.33;12.33;;;;;;;3.27;69.09;93823.78;5046672;28;20422;-73
2021/12/08 06:16:08;;;;;;;23.40;13.87;;;;;;;3.51;68.68;93837.59;5046798;28;20415;-74
2021/12/08 06:18:39;;;;;;;17.00;13.70;;;;;;;3.87;67.69;93848.16;5045389;28;20466;-74
2021/12/08 06:21:16;;;;;;;20.43;13.73;;;;;;;3.45;68.48;93841.66;5045383;28;20410;-74
2021/12/08 06:23:43;;;;;;;14.40;12.03;;;;;;;2.96;69.31;93849.63;5046913;28;20496;-74
2021/12/08 06:26:11;;;;;;;16.80;11.60;;;;;;;3.03;69.18;93853.13;5046560;28;20425;-74
2021/12/08 06:28:38;;;;;;;13.40;10.60;;;;;;;2.88;69.67;93855.66;5046445;28;20453;-73
2021/12/08 06:31:05;;;;;;;15.73;12.10;;;;;;;3.43;68.76;93861.69;5049919;28;20457;-74
2021/12/08 06:33:31;;;;;;;17.77;10.73;;;;;;;3.05;69.05;93861.53;5065945;28;20416;-74
2021/12/08 06:36:06;;;;;;;19.50;12.67;;;;;;;3.02;70.04;93861.09;5065360;28;20274;-74
2021/12/08 06:38:32;;;;;;;16.03;12.07;;;;;;;3.43;67.88;93860.88;5065017;28;20397;-74
2021/12/08 06:41:12;;;;;;;16.90;9.97;;;;;;;2.67;70.50;93858.75;5066168;28;20441;-74
2021/12/08 06:43:42;;;;;;;14.83;11.37;;;;;;;3.27;68.23;93860.00;5064435;28;20429;-73
2021/12/08 06:46:08;;;;;;;11.18;7.45;;;;;;;3.57;67.15;93862.75;5064676;28;20435;-74
2021/12/08 06:48:45;;;;;;;12.10;10.07;;;;;;;2.71;69.84;93856.66;5066041;28;20672;-74
2021/12/08 06:51:24;;;;;;;15.73;11.63;;;;;;;2.87;69.09;93848.84;5066025;28;20460;-73
2021/12/08 06:53:54;;;;;;;17.13;13.13;;;;;;;3.30;68.09;93857.06;5066151;28;20425;-73
2021/12/08 06:56:26;;;;;;;19.93;12.33;;;;;;;3.43;67.25;93853.13;5065595;28;20496;-74
2021/12/08 06:58:56;;;;;;;15.63;10.33;;;;;;;3.11;67.74;93836.78;5066272;28;20409;-74
2021/12/08 07:01:43;;;;;;;13.77;11.40;;;;;;;3.23;68.22;93842.41;5065764;28;20425;-73
2021/12/08 07:07:11;;;;;;;14.40;11.70;;;;;;;3.31;68.10;93856.09;5045885;28;20432;-73
2021/12/08 07:09:46;;;;;;;12.13;8.97;;;;;;;3.41;68.31;93850.69;5046036;28;20889;-74
2021/12/08 07:12:37;;;;;;;21.73;14.37;;;;;;;3.43;67.34;93853.91;5044680;28;20839;-73
2021/12/08 07:15:14;;;;;;;8.37;7.50;;;;;;;3.12;68.39;93866.84;5045261;28;20952;-73
2021/12/08 07:17:43;;;;;;;19.53;13.83;;;;;;;3.63;67.81;93869.81;5045881;28;20433;-74
2021/12/08 07:20:40;;;;;;;13.67;10.27;;;;;;;2.77;68.28;93866.34;5045620;28;20425;-73
2021/12/08 07:23:05;;;;;;;14.70;10.60;;;;;;;2.61;70.56;93879.28;5045401;28;20394;-73
2021/12/08 07:25:33;;;;;;;14.07;10.70;;;;;;;2.48;69.26;93869.44;5045327;28;20407;-73
2021/12/08 07:27:59;;;;;;;18.43;11.93;;;;;;;3.09;68.65;93880.91;5045111;28;20167;-73
2021/12/08 07:30:32;;;;;;;12.63;10.07;;;;;;;2.77;69.65;93887.00;5043647;28;20537;-74
2021/12/08 07:32:58;;;;;;;14.17;9.80;;;;;;;3.08;68.15;93886.25;5044940;28;20437;-73
2021/12/08 07:35:31;;;;;;;8.27;7.40;;;;;;;3.02;68.31;93884.34;5044915;28;20525;-74
2021/12/08 07:37:57;;;;;;;7.10;5.22;;;;;;;3.33;67.13;93899.88;5043930;28;20438;-73
2021/12/08 07:40:30;;;;;;;14.63;10.60;;;;;;;3.27;67.30;93896.19;5063731;28;20162;-74
2021/12/08 07:43:00;;;;;;;10.33;8.30;;;;;;;2.88;68.37;93896.97;5064925;28;20649;-73
2021/12/08 07:45:35;;;;;;;17.48;12.65;;;;;;;3.69;66.20;93896.78;5064886;28;20412;-74
2021/12/08 07:48:12;;;;;;;16.23;11.67;;;;;;;2.75;68.60;93904.41;5063762;28;20205;-74
2021/12/08 07:50:43;;;;;;;15.10;10.30;;;;;;;2.80;68.86;93914.28;5064928;28;20479;-73
2021/12/08 07:53:10;;;;;;;14.48;9.05;;;;;;;2.92;68.08;93906.00;5065281;28;20746;-74
2021/12/08 07:55:41;;;;;;;15.13;10.60;;;;;;;3.04;67.97;93913.41;5057549;28;20171;-73
2021/12/08 07:58:09;;;;;;;11.77;8.63;;;;;;;2.71;68.36;93897.97;5044977;28;20924;-73
2021/12/08 08:00:40;;;;;;;17.60;11.93;;;;;;;3.35;67.22;93917.81;5044793;28;20410;-75
2021/12/08 08:03:08;;;;;;;11.50;8.80;;;;;;;2.79;68.33;93921.22;5043294;28;20190;-74
2021/12/08 08:05:35;;;;;;;15.70;11.73;;;;;;;3.27;67.52;93927.22;5044644;28;20171;-73
2021/12/08 08:08:05;;;;;;;12.85;8.38;;;;;;;2.88;68.01;93927.97;5044912;28;20497;-73
2021/12/08 08:10:35;;;;;;;17.60;10.98;;;;;;;2.79;67.83;93922.97;5044565;28;20210;-73
2021/12/08 08:13:02;;;;;;;15.83;11.07;;;;;;;3.09;68.21;93936.97;5043294;28;20167;-73
2021/12/08 08:15:32;;;;;;;11.13;9.80;;;;;;;3.07;67.60;93941.50;5044488;28;20939;-73
2021/12/08 08:18:05;;;;;;;14.57;10.53;;;;;;;3.40;66.99;93943.97;5057530;28;20410;-74
2021/12/08 08:20:35;;;;;;;14.67;10.97;;;;;;;3.09;68.42;93944.72;5063305;28;20444;-73
2021/12/08 08:23:02;;;;;;;13.40;7.80;;;;;;;3.07;67.19;93941.50;5064729;28;20394;-74
2021/12/08 08:25:34;;;;;;;14.50;10.48;;;;;;;3.36;67.06;93934.91;5064508;28;20405;-73
2021/12/08 08:28:00;;;;;;;19.77;12.50;;;;;;;3.39;66.91;93942.34;5064710;28;20150;-73
2021/12/08 08:30:31;;;;;;;13.27;10.77;;;;;;;3.52;66.49;93940.84;5064738;28;20460;-73
2021/12/08 08:32:57;;;;;;;14.80;11.70;;;;;;;3.63;65.85;93941.44;5061623;28;20409;-75
2021/12/08 08:35:50;;;;;;;14.70;11.03;;;;;;;3.41;65.60;93937.81;5043345;28;20421;-73
2021/12/08 08:38:23;;;;;;;19.47;12.07;;;;;;;3.38;67.14;93938.16;5044723;28;20394;-73
2021/12/08 08:40:55;;;;;;;13.57;9.53;;;;;;;3.47;65.82;93940.56;5043053;28;20429;-73
2021/12/08 08:43:22;;;;;;;15.97;12.53;;;;;;;3.84;65.73;93928.72;5044345;28;20390;-73
2021/12/08 08:45:55;;;;;;;16.37;9.73;;;;;;;3.59;65.94;93942.78;5054974;28;20432;-73
2021/12/08 08:48:30;;;;;;;13.57;11.90;;;;;;;3.82;65.58;93925.50;5064454;28;20900;-73
2021/12/08 08:51:19;;;;;;;14.17;9.63;;;;;;;3.62;65.57;93924.31;5062986;28;20468;-72
2021/12/08 08:53:47;;;;;;;12.40;8.73;;;;;;;3.07;66.76;93929.38;5049359;28;20419;-74
2021/12/08 08:56:20;;;;;;;12.00;9.13;;;;;;;2.91;67.26;93917.31;5096362;28;20432;-73
2021/12/08 08:58:52;;;;;;;15.70;10.33;;;;;;;3.53;65.87;93928.72;5068315;28;20894;-73
2021/12/08 09:01:41;;;;;;;13.63;11.07;;;;;;;3.51;66.40;93915.97;5067776;28;20429;-74
2021/12/08 09:04:11;;;;;;;15.97;11.70;;;;;;;3.75;65.41;93913.41;5068004;28;20392;-73
2021/12/08 09:06:43;;;;;;;11.80;9.50;;;;;;;3.36;65.98;93916.81;5067750;28;20451;-73
2021/12/08 09:09:13;;;;;;;14.37;11.17;;;;;;;3.83;65.19;93908.19;5061421;28;20414;-73
2021/12/08 09:11:47;;;;;;;17.20;11.97;;;;;;;4.23;64.05;93911.47;5066034;28;20499;-74
2021/12/08 09:14:36;;;;;;;16.63;11.30;;;;;;;4.10;64.46;93904.31;5067516;28;20414;-73
2021/12/08 09:17:17;;;;;;;18.40;12.70;;;;;;;4.13;64.10;93903.13;5068043;28;20432;-73
2021/12/08 09:19:48;;;;;;;16.23;11.13;;;;;;;4.14;63.60;93886.66;5067615;28;20448;-73
2021/12/08 09:22:25;;;;;;;19.73;12.73;;;;;;;4.48;63.20;93881.81;5056029;28;20437;-73
2021/12/08 09:25:03;;;;;;;18.00;13.07;;;;;;;4.49;63.77;93880.00;5067716;28;20520;-73
2021/12/08 09:27:38;;;;;;;7.43;6.57;;;;;;;4.40;63.76;93876.72;5066197;28;20439;-72
2021/12/08 09:30:06;;;;;;;11.67;9.33;;;;;;;4.34;63.43;93869.63;5047294;28;20457;-73
2021/12/08 09:32:43;;;;;;;13.30;10.90;;;;;;;4.56;62.87;93870.56;5047785;28;20456;-73
2021/12/08 09:35:22;;;;;;;15.33;12.67;;;;;;;4.75;62.56;93879.63;5050211;28;20925;-73
2021/12/08 09:37:53;;;;;;;19.10;13.37;;;;;;;4.76;63.28;93876.06;5052885;28;20812;-73
2021/12/08 09:40:34;;;;;;;11.90;8.47;;;;;;;4.08;64.81;93878.59;5066877;28;20768;-73
2021/12/08 09:43:09;;;;;;;17.57;12.50;;;;;;;4.82;62.66;93870.16;5066477;28;20451;-72
2021/12/08 09:45:45;;;;;;;16.70;12.10;;;;;;;4.87;62.14;93870.41;5066676;28;20460;-73
2021/12/08 09:48:11;;;;;;;17.07;12.27;;;;;;;4.91;61.98;93868.25;5066759;28;20503;-73
2021/12/08 09:50:38;;;;;;;16.83;12.63;;;;;;;4.48;62.88;93862.88;5066884;28;20448;-73
2021/12/08 09:53:05;;;;;;;19.07;12.97;;;;;;;5.45;60.65;93864.56;5058164;28;20417;-72
2021/12/08 09:55:30;;;;;;;22.10;13.87;;;;;;;5.41;60.97;93865.91;5066416;28;20420;-73
2021/12/08 09:57:56;;;;;;;20.40;15.00;;;;;;;5.00;62.75;93871.56;5066945;28;20421;-73
2021/12/08 10:00:26;;;;;;;20.63;15.67;;;;;;;5.46;61.61;93866.16;5066506;28;20166;-73
2021/12/08 10:02:57;;;;;;;20.13;13.87;;;;;;;5.52;61.49;93869.81;5066662;28;20429;-73
2021/12/08 10:05:25;;;;;;;19.73;13.10;;;;;;;5.25;62.75;93867.72;5067004;28;20412;-72
2021/12/08 10:07:51;;;;;;;13.50;11.20;;;;;;;4.79;63.43;93864.53;5064733;28;20444;-73
2021/12/08 10:10:17;;;;;;;16.53;12.50;;;;;;;4.89;63.44;93873.66;5066207;28;20464;-72
2021/12/08 10:12:43;;;;;;;14.43;10.77;;;;;;;4.86;62.32;93863.63;5060584;28;20437;-72
2021/12/08 10:15:14;;;;;;;15.83;12.43;;;;;;;5.15;62.49;93867.19;5053781;28;20406;-72
2021/12/08 10:17:40;;;;;;;15.10;9.93;;;;;;;5.41;61.74;93873.69;5046646;28;20421;-73
2021/12/08 10:20:10;;;;;;;12.90;7.77;;;;;;;5.34;61.66;93870.22;5066592;28;20483;-73
2021/12/08 10:22:36;;;;;;;18.20;11.87;;;;;;;5.52;61.77;93870.63;5064949;28;20951;-73
2021/12/08 10:25:16;;;;;;;17.03;12.17;;;;;;;5.32;61.99;93861.81;5066318;28;20508;-73
2021/12/08 10:28:25;;;;;;;16.80;12.80;;;;;;;5.16;62.88;93858.44;5066235;28;20171;-72
2021/12/08 10:30:53;;;;;;;14.37;11.77;;;;;;;4.83;63.35;93858.78;5043703;28;20470;-74
2021/12/08 10:36:45;;;;;;;16.17;10.97;;;;;;;4.92;62.50;93853.53;5062410;28;20444;-72
2021/12/08 10:39:28;;;;;;;23.13;14.07;;;;;;;5.20;62.44;93858.88;5057743;28;20417;-73
2021/12/08 10:42:06;;;;;;;15.33;11.67;;;;;;;4.66;63.38;93855.56;5064911;28;20455;-72
2021/12/08 10:44:52;;;;;;;9.77;8.07;;;;;;;5.26;62.91;93851.16;5061356;28;20419;-72
2021/12/08 10:47:31;;;;;;;16.93;11.90;;;;;;;5.69;61.58;93845.25;5065397;28;20436;-71
2021/12/08 10:55:21;;;;;;;14.70;9.60;;;;;;;5.13;62.17;93851.00;5045682;28;20381;-73
2021/12/08 10:57:50;;;;;;;18.00;13.50;;;;;;;6.05;59.66;93866.03;5079043;28;20458;-74
2021/12/08 11:00:26;;;;;;;20.80;13.97;;;;;;;5.76;61.10;93855.69;5065280;28;20408;-74
2021/12/08 11:02:53;;;;;;;19.70;12.47;;;;;;;5.81;60.86;93842.97;5053803;28;20426;-73
2021/12/08 11:05:24;;;;;;;18.07;13.67;;;;;;;5.94;60.66;93843.13;5055830;28;20814;-73
2021/12/08 11:08:02;;;;;;;16.63;13.57;;;;;;;6.25;58.81;93847.19;5055097;28;20489;-73
2021/12/08 11:10:29;;;;;;;18.17;13.30;;;;;;;6.88;57.21;93849.03;5057952;28;20900;-74
2021/12/08 11:12:58;;;;;;;15.03;10.63;;;;;;;6.02;58.46;93843.00;5051658;28;20750;-73
2021/12/08 11:15:26;;;;;;;12.60;10.30;;;;;;;6.37;57.57;93853.47;5065401;28;20470;-74
2021/12/08 11:18:12;;;;;;;9.97;8.20;;;;;;;6.62;56.60;93863.47;5051459;28;20413;-74
2021/12/08 11:20:51;;;;;;;16.23;11.73;;;;;;;6.77;58.07;93869.38;5064013;28;20459;-74
2021/12/08 11:23:38;;;;;;;16.13;12.13;;;;;;;6.37;59.10;93863.88;5065553;28;20396;-74
2021/12/08 11:26:29;;;;;;;17.57;13.00;;;;;;;6.89;57.76;93863.66;5065448;28;20455;-74
2021/12/08 11:29:17;;;;;;;13.60;11.77;;;;;;;6.81;57.70;93854.19;5065461;28;20413;-75
2021/12/08 11:31:47;;;;;;;18.03;14.33;;;;;;;6.22;59.19;93855.34;5065251;28;20469;-74
2021/12/08 11:34:20;;;;;;;12.17;7.33;;;;;;;6.93;55.97;93851.88;5063387;28;20420;-74
2021/12/08 11:36:53;;;;;;;15.93;13.83;;;;;;;7.51;56.09;93854.97;5065279;28;20417;-74
2021/12/08 11:39:22;;;;;;;15.10;12.17;;;;;;;5.94;59.95;93863.88;5065124;28;20420;-74
2021/12/08 11:41:50;;;;;;;13.03;11.53;;;;;;;6.16;58.20;93856.13;5065378;28;20410;-73
2021/12/08 11:44:19;;;;;;;8.00;7.20;;;;;;;6.38;56.95;93860.28;5065051;28;20413;-74
2021/12/08 11:46:49;;;;;;;12.17;10.90;;;;;;;5.97;58.44;93866.13;5063926;28;20413;-74
2021/12/08 11:49:15;;;;;;;10.70;8.50;;;;;;;5.33;60.56;93863.41;5063687;28;20492;-73
2021/12/08 11:51:44;;;;;;;16.53;12.73;;;;;;;5.86;59.67;93870.00;5062998;28;20476;-73
2021/12/08 11:54:48;;;;;;;16.97;11.57;;;;;;;5.90;59.13;93861.81;5062505;28;20417;-73
2021/12/08 11:57:21;;;;;;;11.53;8.67;;;;;;;5.67;59.37;93873.16;5033916;28;20437;-73
2021/12/08 11:59:52;;;;;;;17.30;14.20;;;;;;;5.71;59.98;93866.66;5062965;28;20920;-73
2021/12/08 12:02:21;;;;;;;11.97;9.93;;;;;;;5.44;60.17;93862.94;5063936;28;20417;-73
2021/12/08 12:04:47;;;;;;;19.60;11.80;;;;;;;5.08;61.66;93867.13;5064669;28;20412;-72
2021/12/08 12:07:14;;;;;;;15.40;11.80;;;;;;;5.49;61.39;93876.19;5063665;28;20433;-76
2021/12/08 12:09:41;;;;;;;15.83;10.90;;;;;;;5.55;60.11;93865.06;5061533;28;20500;-73
2021/12/08 12:12:08;;;;;;;23.20;10.80;;;;;;;5.67;60.23;93873.16;5053775;28;20491;-73
2021/12/08 12:14:34;;;;;;;12.33;9.23;;;;;;;5.25;60.11;93859.94;5044580;28;20472;-74
2021/12/08 12:17:00;;;;;;;14.67;11.03;;;;;;;5.97;60.20;93880.91;5045261;28;20429;-73
2021/12/08 12:19:49;;;;;;;11.70;9.50;;;;;;;4.54;62.35;93869.16;5044990;28;20461;-74
2021/12/08 12:22:29;;;;;;;13.40;10.23;;;;;;;4.43;63.25;93876.34;5043398;28;20429;-73
2021/12/08 12:25:30;;;;;;;10.63;9.00;;;;;;;4.95;61.92;93887.69;5059341;28;20518;-73
2021/12/08 12:28:24;;;;;;;15.60;9.80;;;;;;;4.86;62.25;93881.78;5065106;28;20535;-73
2021/12/08 12:30:50;;;;;;;8.10;7.37;;;;;;;4.26;63.87;93877.47;5067116;28;20519;-73
2021/12/08 12:33:22;;;;;;;15.30;11.23;;;;;;;4.32;64.71;93887.13;5067584;28;20413;-72
2021/12/08 12:35:56;;;;;;;12.97;11.50;;;;;;;4.42;64.12;93885.13;5057611;28;20213;-73
2021/12/08 12:38:37;;;;;;;12.70;11.23;;;;;;;4.62;63.84;93887.19;5053210;28;20788;-72